Time;durP1;ratioP1;P1;durP2;ratioP2;P2;SDS_P1;SDS_P2;PMS_P1;PMS_P2;Temp;Humidity;BMP_temperature;BMP_pressure;BME280_temperature;BME280_humidity;BME280_pressure;Samples;Min_cycle;Max_cycle;Signal;HPM_P1;HPM_P2
2023/09/21 00:00:36;;;;;;;4.65;1.70;;;17.50;99.90;;;;;;5055462;28;20079;-76
2023/09/21 00:03:03;;;;;;;4.15;1.60;;;17.50;99.90;;;;;;5045831;28;20036;-74
2023/09/21 00:05:31;;;;;;;3.00;1.35;;;17.60;99.90;;;;;;5020953;28;20051;-74
2023/09/21 00:08:00;;;;;;;5.63;1.50;;;17.60;99.90;;;;;;5072567;28;20087;-74
2023/09/21 00:10:29;;;;;;;6.90;1.35;;;17.60;99.90;;;;;;5061589;28;20381;-74
2023/09/21 00:12:54;;;;;;;3.63;1.13;;;17.60;99.90;;;;;;5041184;28;20664;-74
2023/09/21 00:15:20;;;;;;;2.85;1.20;;;17.70;99.90;;;;;;5046222;28;20043;-73
2023/09/21 00:17:47;;;;;;;3.85;1.50;;;17.60;99.90;;;;;;5062738;28;20119;-74
2023/09/21 00:20:30;;;;;;;2.95;1.40;;;17.70;99.90;;;;;;5065672;28;20145;-74
2023/09/21 00:23:04;;;;;;;4.18;1.65;;;17.70;99.90;;;;;;5031358;28;20504;-74
2023/09/21 00:25:30;;;;;;;3.72;1.35;;;17.70;99.90;;;;;;5039386;28;20246;-75
2023/09/21 00:27:56;;;;;;;7.45;1.40;;;17.70;99.90;;;;;;5058363;28;20492;-74
2023/09/21 00:30:29;;;;;;;6.03;1.90;;;17.70;99.90;;;;;;5061633;28;20725;-74
2023/09/21 00:32:54;;;;;;;2.85;1.20;;;17.70;99.90;;;;;;5049689;28;20595;-74
2023/09/21 00:35:27;;;;;;;2.65;1.40;;;17.70;99.90;;;;;;5043897;28;20051;-75
2023/09/21 00:37:52;;;;;;;2.40;1.30;;;17.80;99.90;;;;;;5045977;28;20415;-73
2023/09/21 00:40:18;;;;;;;3.22;1.63;;;17.70;99.90;;;;;;5035088;28;20033;-74
2023/09/21 00:42:45;;;;;;;5.78;1.52;;;17.80;99.90;;;;;;5042964;28;20052;-74
2023/09/21 00:45:12;;;;;;;4.90;1.73;;;17.70;99.90;;;;;;5037550;28;20127;-74
2023/09/21 00:47:39;;;;;;;5.60;1.08;;;17.70;99.90;;;;;;5043888;28;20037;-75
2023/09/21 00:50:11;;;;;;;4.95;1.27;;;17.70;99.90;;;;;;5040783;28;20127;-73
2023/09/21 00:52:42;;;;;;;1.90;1.10;;;17.70;99.90;;;;;;5044985;28;20412;-75
2023/09/21 00:55:11;;;;;;;3.08;1.20;;;17.70;99.90;;;;;;5059240;28;20040;-75
2023/09/21 00:57:38;;;;;;;3.33;1.30;;;17.80;99.90;;;;;;5059012;28;20056;-69
2023/09/21 01:00:10;;;;;;;6.25;1.50;;;17.80;99.90;;;;;;5044213;28;20036;-69
2023/09/21 01:02:37;;;;;;;2.58;1.40;;;17.80;99.90;;;;;;5049384;28;20032;-69
2023/09/21 01:05:05;;;;;;;2.28;1.33;;;17.80;99.90;;;;;;5045185;28;20053;-69
2023/09/21 01:07:36;;;;;;;2.55;1.20;;;17.80;99.90;;;;;;5040179;28;20119;-69
2023/09/21 01:10:08;;;;;;;4.90;1.70;;;17.80;99.90;;;;;;5048679;28;20051;-73
2023/09/21 01:12:35;;;;;;;3.55;1.58;;;17.90;99.90;;;;;;5065620;28;20040;-73
2023/09/21 01:15:10;;;;;;;2.95;1.30;;;17.80;99.90;;;;;;5070816;28;20120;-73
2023/09/21 01:17:39;;;;;;;1.90;1.20;;;17.90;99.90;;;;;;5065807;28;20421;-72
2023/09/21 01:23:17;;;;;;;4.72;1.65;;;17.90;99.90;;;;;;5013825;28;20040;-73
2023/09/21 01:25:44;;;;;;;4.70;1.35;;;18.00;99.90;;;;;;5074460;28;20043;-73
2023/09/21 01:28:16;;;;;;;3.88;1.48;;;18.00;99.90;;;;;;5051262;28;20048;-73
2023/09/21 01:30:45;;;;;;;8.20;1.90;;;18.00;99.90;;;;;;5048813;28;20316;-73
2023/09/21 01:33:15;;;;;;;3.40;1.40;;;18.00;99.90;;;;;;5035405;28;20042;-73
2023/09/21 01:35:47;;;;;;;2.95;1.23;;;18.00;99.90;;;;;;5073902;28;20043;-73
2023/09/21 01:38:14;;;;;;;3.50;1.77;;;18.00;99.90;;;;;;5065549;28;20369;-73
2023/09/21 01:40:41;;;;;;;2.58;1.45;;;18.00;99.90;;;;;;5066351;28;20048;-73
2023/09/21 01:43:11;;;;;;;3.55;1.58;;;18.10;99.90;;;;;;5052013;28;20384;-73
2023/09/21 01:45:42;;;;;;;4.45;1.30;;;18.00;99.90;;;;;;5040795;28;20044;-73
2023/09/21 01:48:14;;;;;;;4.15;1.30;;;18.00;99.90;;;;;;5058323;28;20040;-73
2023/09/21 01:50:46;;;;;;;2.08;1.17;;;18.00;99.90;;;;;;5041123;28;20412;-73
2023/09/21 01:53:12;;;;;;;2.35;1.05;;;18.00;99.90;;;;;;5030834;28;20498;-73
2023/09/21 01:55:40;;;;;;;2.50;1.10;;;18.00;99.90;;;;;;5070602;28;20508;-73
2023/09/21 01:58:07;;;;;;;3.72;1.63;;;18.00;99.90;;;;;;5055653;28;20044;-73
2023/09/21 02:00:36;;;;;;;3.10;1.05;;;18.00;99.90;;;;;;5047991;28;20085;-73
2023/09/21 02:03:06;;;;;;;3.30;1.80;;;18.00;99.90;;;;;;5058342;28;20369;-72
2023/09/21 02:05:32;;;;;;;2.05;1.10;;;18.00;99.90;;;;;;5065138;28;20040;-73
2023/09/21 02:07:58;;;;;;;;;;;18.00;99.90;;;;;;5070847;28;20124;-73
2023/09/21 02:10:24;;;;;;;2.70;1.20;;;18.00;99.90;;;;;;5054858;28;19963;-73
2023/09/21 02:13:00;;;;;;;3.88;1.70;;;18.00;99.90;;;;;;5076717;28;20047;-73
2023/09/21 02:15:27;;;;;;;5.13;1.20;;;18.00;99.90;;;;;;5082158;28;20173;-73
2023/09/21 02:17:55;;;;;;;4.18;1.48;;;17.90;99.90;;;;;;5072067;28;20047;-73
2023/09/21 02:20:28;;;;;;;2.90;1.20;;;17.90;99.90;;;;;;5036747;28;20431;-73
2023/09/21 02:22:58;;;;;;;1.73;1.10;;;17.90;99.90;;;;;;5055782;28;20678;-73
2023/09/21 02:25:26;;;;;;;2.30;1.20;;;17.90;99.90;;;;;;5070173;28;20040;-73
2023/09/21 02:27:52;;;;;;;2.83;1.20;;;17.90;99.90;;;;;;5051808;28;20036;-73
2023/09/21 02:30:23;;;;;;;3.05;1.50;;;17.90;99.90;;;;;;5036680;28;20507;-73
2023/09/21 02:32:54;;;;;;;5.97;1.30;;;18.00;99.90;;;;;;5055386;28;20056;-73
2023/09/21 02:35:27;;;;;;;2.60;1.20;;;18.00;99.90;;;;;;5070430;28;20377;-73
2023/09/21 02:37:56;;;;;;;3.58;1.30;;;18.00;99.90;;;;;;5058944;28;20052;-73
2023/09/21 02:40:23;;;;;;;4.55;1.13;;;18.00;99.90;;;;;;5078960;28;20527;-73
2023/09/21 02:42:50;;;;;;;3.33;1.27;;;18.00;99.90;;;;;;5051414;28;20052;-73
2023/09/21 02:45:20;;;;;;;4.28;1.85;;;18.10;99.90;;;;;;5052809;28;20067;-73
2023/09/21 02:47:47;;;;;;;2.75;1.02;;;18.00;99.90;;;;;;5070788;28;20518;-73
2023/09/21 02:50:15;;;;;;;3.47;1.20;;;18.10;99.90;;;;;;5050824;28;20044;-73
2023/09/21 02:53:06;;;;;;;3.40;1.13;;;18.10;99.90;;;;;;5077767;28;20048;-73
2023/09/21 02:55:33;;;;;;;1.73;1.00;;;18.10;99.90;;;;;;5062250;28;20111;-73
2023/09/21 02:58:04;;;;;;;3.22;1.42;;;18.10;99.90;;;;;;5075456;28;20080;-73
2023/09/21 03:00:34;;;;;;;3.92;1.30;;;18.10;99.90;;;;;;5049397;28;20043;-73
2023/09/21 03:03:05;;;;;;;3.05;1.08;;;18.10;99.90;;;;;;5075382;28;20489;-73
2023/09/21 03:05:32;;;;;;;5.55;1.40;;;18.10;99.90;;;;;;5049030;28;20624;-73
2023/09/21 03:08:09;;;;;;;3.40;1.10;;;18.10;99.90;;;;;;5052579;28;20171;-73
2023/09/21 03:10:36;;;;;;;4.45;1.80;;;18.10;99.90;;;;;;5049392;28;20102;-73
2023/09/21 03:13:05;;;;;;;2.78;1.10;;;18.10;99.90;;;;;;5034214;28;20049;-73
2023/09/21 03:15:34;;;;;;;2.58;1.00;;;18.10;99.90;;;;;;5057932;28;20037;-74
2023/09/21 03:17:59;;;;;;;2.25;1.15;;;18.10;99.90;;;;;;5052417;28;20563;-73
2023/09/21 03:20:29;;;;;;;3.35;1.35;;;18.10;99.90;;;;;;5051624;28;20052;-73
2023/09/21 03:23:05;;;;;;;3.28;1.70;;;18.10;99.90;;;;;;5058239;28;20048;-73
2023/09/21 03:25:33;;;;;;;3.20;1.25;;;18.10;99.90;;;;;;5055728;28;20063;-73
2023/09/21 03:28:18;;;;;;;2.35;1.05;;;18.10;99.90;;;;;;5048453;28;20507;-73
2023/09/21 03:30:53;;;;;;;4.60;1.30;;;18.10;99.90;;;;;;5058684;28;20044;-73
2023/09/21 03:33:20;;;;;;;2.63;1.10;;;18.10;99.90;;;;;;5055512;28;20044;-73
2023/09/21 03:35:46;;;;;;;3.90;1.30;;;18.10;99.90;;;;;;5054881;28;20036;-73
2023/09/21 03:38:12;;;;;;;2.20;1.33;;;18.20;99.90;;;;;;5056838;28;20077;-73
2023/09/21 03:40:42;;;;;;;;;;;18.20;99.90;;;;;;5059507;28;20122;-73
2023/09/21 03:43:10;;;;;;;3.53;1.42;;;18.20;99.90;;;;;;5052717;28;19920;-73
2023/09/21 03:45:40;;;;;;;2.10;0.80;;;18.20;99.90;;;;;;5046223;28;20155;-73
2023/09/21 03:48:08;;;;;;;5.47;1.40;;;18.20;99.90;;;;;;5055477;28;20043;-73
2023/09/21 03:50:34;;;;;;;3.40;1.15;;;18.20;99.90;;;;;;5053148;28;20048;-73
2023/09/21 03:53:04;;;;;;;2.50;1.45;;;18.30;99.90;;;;;;5056814;28;20047;-73
2023/09/21 03:55:32;;;;;;;3.70;1.30;;;18.20;99.90;;;;;;5050273;28;20072;-73
2023/09/21 03:57:58;;;;;;;3.03;1.38;;;18.30;99.90;;;;;;5047233;28;20033;-73
2023/09/21 04:00:31;;;;;;;2.38;1.05;;;18.30;99.90;;;;;;5063898;28;20036;-73
2023/09/21 04:03:01;;;;;;;2.47;1.23;;;18.30;99.90;;;;;;5032043;28;20040;-77
2023/09/21 04:05:35;;;;;;;5.30;1.27;;;18.30;99.90;;;;;;5067901;28;20036;-73
2023/09/21 04:08:04;;;;;;;4.03;1.73;;;18.30;99.90;;;;;;5046888;28;20048;-73
2023/09/21 04:10:30;;;;;;;3.67;1.48;;;18.30;99.90;;;;;;5053118;28;20288;-73
2023/09/21 04:12:57;;;;;;;2.88;1.15;;;18.30;99.90;;;;;;5068553;28;20060;-73
2023/09/21 04:15:26;;;;;;;;;;;18.20;99.90;;;;;;5054904;28;20043;-73
2023/09/21 04:17:52;;;;;;;2.78;1.00;;;18.20;99.90;;;;;;5042883;28;20198;-69
2023/09/21 04:20:22;;;;;;;2.00;0.98;;;18.20;99.90;;;;;;5045660;28;20122;-68
2023/09/21 04:22:49;;;;;;;4.20;1.52;;;18.20;99.90;;;;;;5031664;28;20504;-69
2023/09/21 04:25:16;;;;;;;4.35;1.58;;;18.20;99.90;;;;;;5063296;28;20086;-68
2023/09/21 04:27:48;;;;;;;2.55;1.02;;;18.30;99.90;;;;;;5060252;28;20444;-69
2023/09/21 04:30:22;;;;;;;2.88;1.30;;;18.30;99.90;;;;;;5043352;28;20040;-68
2023/09/21 04:32:48;;;;;;;3.03;1.50;;;18.30;99.90;;;;;;5043462;28;20091;-68
2023/09/21 04:35:18;;;;;;;2.05;1.02;;;18.20;99.90;;;;;;5056332;28;20294;-68
2023/09/21 04:37:48;;;;;;;4.95;1.15;;;18.20;99.90;;;;;;5042271;28;20508;-68
2023/09/21 04:40:17;;;;;;;4.03;1.27;;;18.20;99.90;;;;;;5058515;28;20241;-68
2023/09/21 04:42:47;;;;;;;2.63;1.20;;;18.20;99.90;;;;;;5042235;28;20048;-68
2023/09/21 04:45:16;;;;;;;3.50;1.27;;;18.20;99.90;;;;;;5056433;28;20419;-67
2023/09/21 04:47:45;;;;;;;1.90;0.85;;;18.20;99.90;;;;;;5023896;28;20036;-68
2023/09/21 04:50:17;;;;;;;3.67;1.63;;;18.20;99.90;;;;;;5036621;28;20041;-68
2023/09/21 04:52:49;;;;;;;2.72;1.08;;;18.20;99.90;;;;;;5035519;28;20128;-68
2023/09/21 04:55:16;;;;;;;2.75;1.30;;;18.20;99.90;;;;;;5057340;28;20036;-68
2023/09/21 04:57:45;;;;;;;1.92;0.93;;;18.10;99.90;;;;;;5029681;28;20040;-67
2023/09/21 05:00:15;;;;;;;2.15;1.00;;;18.10;99.90;;;;;;5046980;28;20032;-67
2023/09/21 05:02:43;;;;;;;3.80;1.10;;;18.10;99.90;;;;;;5040317;28;20071;-69
2023/09/21 05:05:14;;;;;;;3.75;1.30;;;18.10;99.90;;;;;;5068095;28;20036;-72
2023/09/21 05:07:40;;;;;;;3.60;1.50;;;18.10;99.90;;;;;;5045616;28;20048;-68
2023/09/21 05:10:07;;;;;;;7.50;1.35;;;18.00;99.90;;;;;;5059854;28;20043;-69
2023/09/21 05:12:33;;;;;;;3.75;1.02;;;18.00;99.90;;;;;;5046382;28;20079;-70
2023/09/21 05:14:58;;;;;;;3.75;1.60;;;18.00;99.90;;;;;;5049224;28;20056;-71
2023/09/21 05:17:25;;;;;;;2.10;0.98;;;18.00;99.90;;;;;;5024096;28;20072;-70
2023/09/21 05:19:50;;;;;;;3.92;1.20;;;18.00;99.90;;;;;;5042872;28;20059;-69
2023/09/21 05:22:16;;;;;;;3.55;1.40;;;18.00;99.90;;;;;;5062784;28;20123;-70
2023/09/21 05:24:43;;;;;;;3.45;1.30;;;18.00;99.90;;;;;;5049673;28;20086;-70
2023/09/21 05:27:11;;;;;;;3.42;1.40;;;17.90;99.90;;;;;;5033268;28;20521;-73
2023/09/21 05:29:37;;;;;;;2.65;0.90;;;18.00;99.90;;;;;;5037825;28;20594;-70
2023/09/21 05:32:05;;;;;;;2.83;1.35;;;18.00;99.90;;;;;;5055205;28;20105;-70
2023/09/21 05:34:32;;;;;;;3.58;1.23;;;18.00;99.90;;;;;;5066254;28;20044;-68
2023/09/21 05:36:57;;;;;;;;;;;18.00;99.90;;;;;;5059088;28;20504;-70
2023/09/21 05:39:26;;;;;;;2.15;1.20;;;18.00;99.90;;;;;;5056584;28;19916;-75
2023/09/21 05:41:54;;;;;;;1.90;1.10;;;18.00;99.90;;;;;;5046655;28;20052;-73
2023/09/21 05:44:25;;;;;;;2.88;1.10;;;18.00;99.90;;;;;;5045035;28;20036;-72
2023/09/21 05:46:54;;;;;;;3.78;1.10;;;18.00;99.90;;;;;;5040400;28;20416;-69
2023/09/21 05:49:27;;;;;;;1.98;1.15;;;18.00;99.90;;;;;;5067218;28;20063;-69
2023/09/21 05:51:56;;;;;;;2.47;1.20;;;18.00;99.90;;;;;;5049809;28;20067;-71
2023/09/21 05:54:23;;;;;;;4.03;1.40;;;18.00;99.90;;;;;;5052905;28;20510;-72
2023/09/21 05:56:51;;;;;;;4.32;1.23;;;18.10;99.90;;;;;;5022711;28;20041;-73
2023/09/21 05:59:17;;;;;;;5.03;1.35;;;18.00;99.90;;;;;;5063974;28;20385;-69
2023/09/21 06:01:43;;;;;;;6.40;1.50;;;18.10;99.90;;;;;;5046957;28;20040;-70
2023/09/21 06:04:12;;;;;;;3.13;1.20;;;18.10;99.90;;;;;;5030517;28;20131;-76
2023/09/21 06:06:38;;;;;;;3.08;1.30;;;18.00;99.90;;;;;;5027793;28;20101;-72
2023/09/21 06:09:08;;;;;;;2.63;1.20;;;18.00;99.90;;;;;;5060158;28;20246;-73
2023/09/21 06:11:33;;;;;;;2.38;1.33;;;18.00;99.90;;;;;;5065218;28;20036;-72
2023/09/21 06:13:59;;;;;;;3.22;1.25;;;18.00;99.90;;;;;;5066652;28;20510;-69
2023/09/21 06:16:29;;;;;;;1.98;1.38;;;17.80;99.90;;;;;;5059874;28;20480;-70
2023/09/21 06:18:57;;;;;;;3.33;1.25;;;17.90;99.90;;;;;;5050775;28;20090;-71
2023/09/21 06:21:23;;;;;;;2.53;1.23;;;17.80;99.90;;;;;;5061332;28;20215;-71
2023/09/21 06:23:49;;;;;;;3.20;1.17;;;17.80;99.90;;;;;;5033094;28;20226;-71
2023/09/21 06:26:15;;;;;;;5.55;1.40;;;17.80;99.90;;;;;;5057298;28;20048;-71
2023/09/21 06:28:43;;;;;;;3.38;1.48;;;17.80;99.90;;;;;;5061564;28;20051;-71
2023/09/21 06:31:13;;;;;;;2.72;1.17;;;17.70;99.90;;;;;;5064845;28;20100;-71
2023/09/21 06:33:40;;;;;;;2.78;1.00;;;17.70;99.90;;;;;;5064687;28;20123;-71
2023/09/21 06:36:13;;;;;;;4.70;1.40;;;17.70;99.90;;;;;;5066233;28;20048;-71
2023/09/21 06:38:46;;;;;;;3.80;1.50;;;17.70;99.90;;;;;;5057082;28;20119;-71
2023/09/21 06:41:13;;;;;;;3.13;2.08;;;17.70;99.90;;;;;;5069765;28;20064;-71
2023/09/21 06:43:43;;;;;;;1.98;1.00;;;17.70;99.90;;;;;;5066100;28;20044;-70
2023/09/21 06:46:12;;;;;;;2.20;1.20;;;17.70;99.90;;;;;;5059938;28;20049;-70
2023/09/21 06:48:40;;;;;;;4.55;1.63;;;17.70;99.90;;;;;;5024062;28;20136;-70
2023/09/21 06:51:07;;;;;;;3.15;1.30;;;17.70;99.90;;;;;;5033745;28;20033;-70
2023/09/21 06:53:35;;;;;;;2.70;1.40;;;17.70;99.90;;;;;;5029210;28;20178;-71
2023/09/21 06:56:00;;;;;;;3.25;1.42;;;17.70;99.90;;;;;;5033014;28;20044;-71
2023/09/21 06:58:28;;;;;;;3.70;1.40;;;17.60;99.90;;;;;;5063580;28;20044;-71
2023/09/21 07:00:54;;;;;;;5.72;1.40;;;17.60;99.90;;;;;;5039906;28;20044;-70
2023/09/21 07:03:19;;;;;;;2.90;1.52;;;17.70;99.90;;;;;;5047953;28;20040;-71
2023/09/21 07:05:48;;;;;;;1.45;0.93;;;17.60;99.90;;;;;;5062525;28;20048;-71
2023/09/21 07:08:15;;;;;;;4.63;1.25;;;17.70;99.90;;;;;;5043870;28;20035;-71
2023/09/21 07:10:41;;;;;;;2.60;1.42;;;17.60;99.90;;;;;;5052818;28;20495;-71
2023/09/21 07:13:09;;;;;;;3.25;1.23;;;17.60;99.90;;;;;;5069003;28;20032;-70
2023/09/21 07:15:37;;;;;;;3.10;1.25;;;17.60;99.90;;;;;;5066516;28;20503;-70
2023/09/21 07:18:06;;;;;;;5.88;1.75;;;17.50;99.90;;;;;;5047410;28;20040;-70
2023/09/21 07:20:35;;;;;;;5.88;1.50;;;17.50;99.90;;;;;;5046504;28;20496;-71
2023/09/21 07:23:01;;;;;;;2.80;1.30;;;17.50;99.90;;;;;;5063590;28;20051;-71
2023/09/21 07:25:28;;;;;;;3.90;2.10;;;17.50;99.90;;;;;;5065935;28;20060;-72
2023/09/21 07:27:54;;;;;;;2.65;1.48;;;17.50;99.90;;;;;;5032039;28;20496;-71
2023/09/21 07:30:20;;;;;;;;;;;17.50;99.90;;;;;;5056693;28;20072;-71
2023/09/21 07:32:46;;;;;;;2.85;1.45;;;17.50;99.90;;;;;;5030234;28;20465;-71
2023/09/21 07:35:14;;;;;;;3.70;1.40;;;17.40;99.90;;;;;;5048756;28;20331;-71
2023/09/21 07:37:45;;;;;;;5.97;1.80;;;17.50;99.90;;;;;;5066643;28;20048;-71
2023/09/21 07:40:14;;;;;;;2.63;1.45;;;17.40;99.90;;;;;;5043004;28;20115;-71
2023/09/21 07:42:42;;;;;;;3.75;1.55;;;17.40;99.90;;;;;;5045184;28;20054;-71
2023/09/21 07:45:10;;;;;;;2.70;1.60;;;17.40;99.90;;;;;;5064055;28;20066;-71
2023/09/21 07:47:37;;;;;;;6.00;1.75;;;17.30;99.90;;;;;;5062973;28;20090;-71
2023/09/21 07:50:04;;;;;;;3.97;1.50;;;17.30;99.90;;;;;;5061479;28;20401;-71
2023/09/21 07:52:30;;;;;;;4.43;1.73;;;17.30;99.90;;;;;;5044187;28;20326;-71
2023/09/21 07:54:56;;;;;;;2.13;1.02;;;17.30;99.90;;;;;;5062314;28;20340;-71
2023/09/21 07:57:22;;;;;;;2.63;0.60;;;17.20;99.90;;;;;;5060390;28;20040;-71
2023/09/21 07:59:48;;;;;;;2.05;1.40;;;17.00;99.90;;;;;;5025061;28;20548;-71
2023/09/21 08:02:13;;;;;;;1.63;0.73;;;16.80;99.90;;;;;;5048065;28;20455;-71
2023/09/21 08:04:39;;;;;;;2.17;0.70;;;16.60;99.90;;;;;;5044304;28;20141;-70
2023/09/21 08:07:05;;;;;;;2.47;0.60;;;16.60;99.90;;;;;;5062598;28;20037;-70
2023/09/21 08:09:32;;;;;;;1.65;0.88;;;16.40;99.90;;;;;;5045504;28;20500;-70
2023/09/21 08:11:58;;;;;;;8.52;1.42;;;16.30;99.90;;;;;;5042828;28;20057;-70
2023/09/21 08:14:25;;;;;;;3.20;1.17;;;16.20;99.90;;;;;;5064030;28;20033;-70
2023/09/21 08:16:53;;;;;;;2.75;0.93;;;16.10;99.90;;;;;;5044244;28;20500;-70
2023/09/21 08:19:19;;;;;;;2.83;0.77;;;16.10;99.90;;;;;;5048230;28;20036;-71
2023/09/21 08:21:45;;;;;;;1.92;0.60;;;16.00;99.90;;;;;;5045232;28;20047;-71
2023/09/21 08:24:10;;;;;;;1.70;0.80;;;15.90;99.90;;;;;;5036854;28;20044;-71
2023/09/21 08:26:37;;;;;;;2.88;0.93;;;15.90;99.90;;;;;;5063650;28;20093;-71
2023/09/21 08:29:04;;;;;;;4.15;1.63;;;15.90;99.90;;;;;;5041704;28;20067;-73
2023/09/21 08:31:30;;;;;;;1.92;1.00;;;15.90;99.90;;;;;;5029993;28;20068;-71
2023/09/21 08:33:59;;;;;;;3.78;0.82;;;15.80;99.90;;;;;;5043637;28;20086;-71
2023/09/21 08:36:24;;;;;;;0.90;0.43;;;15.80;99.90;;;;;;5062740;28;20045;-70
2023/09/21 08:38:50;;;;;;;4.43;1.10;;;15.80;99.90;;;;;;5037609;28;20083;-72
2023/09/21 08:41:16;;;;;;;1.52;0.40;;;15.80;99.90;;;;;;5058267;28;20040;-71
2023/09/21 08:43:43;;;;;;;1.80;0.70;;;15.80;99.90;;;;;;5044372;28;20045;-71
2023/09/21 08:46:11;;;;;;;1.67;0.60;;;15.90;99.90;;;;;;5040509;28;20044;-71
2023/09/21 08:48:39;;;;;;;2.15;0.70;;;15.80;99.90;;;;;;5042134;28;20127;-75
2023/09/21 08:51:11;;;;;;;1.70;0.63;;;15.80;99.90;;;;;;5058328;28;20076;-70
2023/09/21 08:53:39;;;;;;;1.85;0.70;;;15.80;99.90;;;;;;5041375;28;20408;-70
2023/09/21 08:56:05;;;;;;;1.67;0.70;;;15.80;99.90;;;;;;5046254;28;20044;-71
2023/09/21 08:58:37;;;;;;;1.20;0.52;;;15.80;99.90;;;;;;5042191;28;20405;-71
2023/09/21 09:01:03;;;;;;;1.92;0.70;;;15.80;99.90;;;;;;5030802;28;20158;-71
2023/09/21 09:03:30;;;;;;;1.83;0.60;;;15.80;99.90;;;;;;5045584;28;20333;-71
2023/09/21 09:05:59;;;;;;;5.68;0.75;;;15.80;99.90;;;;;;5062417;28;20142;-71
2023/09/21 09:08:25;;;;;;;1.73;0.68;;;15.80;99.90;;;;;;5033585;28;20442;-72
2023/09/21 09:10:53;;;;;;;2.90;0.70;;;15.70;99.90;;;;;;5046556;28;20163;-71
2023/09/21 09:13:40;;;;;;;2.03;0.57;;;15.70;99.90;;;;;;5040952;28;20075;-72
2023/09/21 09:16:08;;;;;;;2.92;0.60;;;15.70;99.90;;;;;;5022208;28;20044;-72
2023/09/21 09:18:35;;;;;;;1.98;0.65;;;15.70;99.90;;;;;;5024741;28;20049;-71
2023/09/21 09:21:00;;;;;;;1.33;0.40;;;15.70;99.90;;;;;;5043452;28;20058;-71
2023/09/21 09:23:26;;;;;;;1.80;0.50;;;15.70;99.90;;;;;;5041299;28;20128;-71
2023/09/21 09:25:54;;;;;;;1.45;0.60;;;15.70;99.90;;;;;;5061078;28;20064;-71
2023/09/21 09:28:21;;;;;;;1.15;0.40;;;15.70;99.90;;;;;;5044800;28;20152;-71
2023/09/21 09:30:49;;;;;;;2.08;0.50;;;15.70;99.90;;;;;;5058634;28;20464;-71
2023/09/21 09:33:17;;;;;;;0.90;0.40;;;15.70;99.90;;;;;;5044181;28;20194;-71
2023/09/21 09:35:45;;;;;;;2.08;0.50;;;15.70;99.90;;;;;;5037942;28;20048;-71
2023/09/21 09:38:11;;;;;;;1.17;0.47;;;15.70;99.90;;;;;;5043476;28;20046;-71
2023/09/21 09:40:37;;;;;;;;;;;15.80;99.90;;;;;;5040393;28;20044;-70
2023/09/21 09:43:07;;;;;;;2.30;0.47;;;15.80;99.90;;;;;;5046396;28;20002;-71
2023/09/21 09:45:37;;;;;;;1.30;0.50;;;15.90;99.90;;;;;;5043586;28;20153;-71
2023/09/21 09:48:11;;;;;;;1.15;0.50;;;15.90;99.90;;;;;;5031284;28;20040;-71
2023/09/21 09:50:41;;;;;;;1.27;0.40;;;15.90;99.90;;;;;;5056910;28;20560;-71
2023/09/21 09:53:10;;;;;;;3.50;1.70;;;15.90;99.90;;;;;;5045735;28;20055;-71
2023/09/21 09:55:40;;;;;;;2.13;0.90;;;16.00;99.90;;;;;;5038180;28;20083;-71
2023/09/21 09:58:08;;;;;;;2.67;1.13;;;16.00;99.90;;;;;;5058432;28;20464;-71
2023/09/21 10:00:40;;;;;;;3.33;1.63;;;16.00;99.90;;;;;;5061478;28;20162;-71
2023/09/21 10:03:10;;;;;;;2.88;1.27;;;15.90;99.90;;;;;;5024444;28;20070;-71
2023/09/21 10:05:36;;;;;;;4.70;2.25;;;16.00;99.90;;;;;;5044449;28;20094;-71
2023/09/21 10:08:06;;;;;;;6.47;2.13;;;16.00;99.90;;;;;;5058111;28;20408;-72
2023/09/21 10:10:42;;;;;;;7.82;2.40;;;16.00;99.90;;;;;;5044997;28;20041;-71
2023/09/21 10:13:08;;;;;;;4.55;2.10;;;16.10;99.90;;;;;;5040828;28;20512;-71
2023/09/21 10:15:34;;;;;;;;;;;16.10;99.90;;;;;;5062196;28;20056;-71
2023/09/21 10:18:01;;;;;;;1.77;0.70;;;16.10;99.90;;;;;;5048780;28;19920;-71
2023/09/21 10:20:33;;;;;;;1.65;0.80;;;16.10;99.90;;;;;;5032017;28;20194;-72
2023/09/21 10:23:09;;;;;;;1.38;0.40;;;16.20;99.90;;;;;;5066089;28;20045;-70
2023/09/21 10:25:41;;;;;;;1.58;0.30;;;16.10;99.90;;;;;;5049611;28;20087;-70
2023/09/21 10:28:28;;;;;;;1.05;0.50;;;16.10;99.90;;;;;;5049169;28;20055;-70
2023/09/21 10:31:06;;;;;;;;;;;16.10;99.90;;;;;;5063672;28;20151;-70
2023/09/21 10:33:36;;;;;;;0.90;0.30;;;16.10;99.90;;;;;;5066399;28;20388;-70
2023/09/21 10:36:01;;;;;;;1.20;0.50;;;16.10;99.90;;;;;;5040333;28;20603;-70
2023/09/21 10:38:27;;;;;;;1.13;0.40;;;16.00;99.90;;;;;;5049158;28;20127;-70
2023/09/21 10:40:53;;;;;;;1.52;0.50;;;16.10;99.90;;;;;;5044920;28;20096;-70
2023/09/21 10:43:37;;;;;;;1.80;0.52;;;16.10;99.90;;;;;;5049146;28;20123;-70
2023/09/21 10:46:29;;;;;;;1.00;0.52;;;16.10;99.90;;;;;;5041532;28;20040;-69
2023/09/21 10:49:04;;;;;;;1.08;0.45;;;16.10;99.90;;;;;;5043549;28;20059;-69
2023/09/21 10:51:31;;;;;;;1.88;0.65;;;16.10;99.90;;;;;;5063687;28;20036;-70
2023/09/21 10:53:58;;;;;;;1.23;0.50;;;16.10;99.90;;;;;;5062174;28;20451;-69
2023/09/21 10:56:27;;;;;;;0.95;0.55;;;16.10;99.90;;;;;;5045262;28;20043;-69
2023/09/21 10:58:54;;;;;;;2.42;0.30;;;16.10;99.90;;;;;;5041072;28;20044;-70
2023/09/21 11:01:19;;;;;;;;;;;16.10;99.90;;;;;;5046982;28;20037;-69
2023/09/21 11:03:48;;;;;;;2.42;0.80;;;16.10;99.90;;;;;;5053325;28;19916;-71
2023/09/21 11:06:17;;;;;;;1.52;0.38;;;16.10;99.90;;;;;;5063086;28;20571;-69
2023/09/21 11:08:49;;;;;;;1.02;0.40;;;16.10;99.90;;;;;;5041769;28;20238;-69
2023/09/21 11:11:16;;;;;;;0.95;0.43;;;16.00;99.90;;;;;;5047631;28;20033;-69
2023/09/21 11:13:43;;;;;;;1.52;0.57;;;16.00;99.90;;;;;;5056445;28;20037;-70
2023/09/21 11:16:09;;;;;;;1.45;0.68;;;15.90;99.90;;;;;;5046232;28;20044;-70
2023/09/21 11:18:39;;;;;;;1.17;0.38;;;15.90;99.90;;;;;;5044244;28;20388;-69
2023/09/21 11:21:08;;;;;;;1.30;0.50;;;15.90;99.90;;;;;;5039575;28;20044;-69
2023/09/21 11:23:35;;;;;;;1.08;0.50;;;16.00;99.90;;;;;;5061485;28;20071;-69
2023/09/21 11:26:01;;;;;;;2.38;0.40;;;16.00;99.90;;;;;;5029459;28;20066;-70
2023/09/21 11:28:27;;;;;;;3.63;0.60;;;16.10;99.90;;;;;;5060285;28;20036;-70
2023/09/21 11:30:56;;;;;;;1.55;0.60;;;16.10;99.90;;;;;;5040339;28;20037;-70
2023/09/21 11:33:22;;;;;;;1.05;0.47;;;16.10;99.90;;;;;;5044104;28;20051;-70
2023/09/21 11:35:48;;;;;;;1.02;0.40;;;16.10;99.90;;;;;;5061386;28;20044;-69
2023/09/21 11:38:17;;;;;;;1.17;0.40;;;16.10;99.90;;;;;;5047605;28;20043;-70
2023/09/21 11:40:43;;;;;;;1.27;0.50;;;16.10;99.90;;;;;;5037599;28;20059;-69
2023/09/21 11:43:13;;;;;;;;;;;16.00;99.90;;;;;;5064548;28;20592;-69
2023/09/21 11:45:39;;;;;;;1.30;0.40;;;16.00;99.90;;;;;;5036457;28;19920;-69
2023/09/21 11:48:06;;;;;;;1.90;0.43;;;15.90;99.90;;;;;;5062328;28;20090;-69
2023/09/21 11:50:34;;;;;;;1.40;0.60;;;15.90;99.90;;;;;;5045672;28;20049;-69
2023/09/21 11:53:06;;;;;;;1.60;0.47;;;15.90;99.90;;;;;;5062646;28;20047;-69
2023/09/21 11:55:32;;;;;;;0.90;0.45;;;15.80;99.90;;;;;;5031170;28;20036;-69
2023/09/21 11:58:14;;;;;;;1.15;0.50;;;15.90;99.90;;;;;;5041564;28;20041;-69
2023/09/21 12:00:44;;;;;;;2.22;0.70;;;15.90;99.90;;;;;;5048202;28;20036;-69
2023/09/21 12:03:14;;;;;;;1.50;0.60;;;15.90;99.90;;;;;;5058980;28;20040;-69
2023/09/21 12:05:43;;;;;;;1.63;0.57;;;15.90;99.90;;;;;;5060230;28;20420;-70
2023/09/21 12:08:14;;;;;;;1.63;0.60;;;15.90;99.90;;;;;;5041134;28;20075;-69
2023/09/21 12:10:48;;;;;;;1.58;0.70;;;15.90;99.90;;;;;;5040063;28;20200;-69
2023/09/21 12:13:14;;;;;;;1.90;0.60;;;16.00;99.90;;;;;;5039994;28;20500;-69
2023/09/21 12:15:40;;;;;;;;;;;16.10;99.90;;;;;;5061581;28;20036;-69
2023/09/21 12:18:10;;;;;;;1.30;0.43;;;16.10;99.90;;;;;;5043364;28;20386;-70
2023/09/21 12:21:18;;;;;;;1.30;0.60;;;16.00;99.90;;;;;;5062858;28;20045;-70
2023/09/21 12:23:34;;;;;;;2.42;0.73;;;16.20;99.90;;;;;;5041787;28;20457;-70
2023/09/21 12:25:59;;;;;;;1.80;0.95;;;16.20;99.90;;;;;;5061602;28;20066;-69
2023/09/21 12:28:25;;;;;;;2.22;0.65;;;16.20;99.90;;;;;;5059949;28;20040;-69
2023/09/21 12:30:51;;;;;;;0.50;0.30;;;16.20;99.90;;;;;;5062307;28;20040;-70
2023/09/21 12:33:17;;;;;;;1.20;0.60;;;16.20;99.90;;;;;;5058060;28;20040;-69
2023/09/21 12:35:43;;;;;;;1.92;0.95;;;16.30;99.90;;;;;;5062061;28;20078;-69
2023/09/21 12:38:11;;;;;;;1.63;0.77;;;16.30;99.90;;;;;;5044816;28;20093;-71
2023/09/21 12:40:38;;;;;;;2.28;0.70;;;16.30;99.90;;;;;;5043562;28;20048;-70
2023/09/21 12:43:05;;;;;;;4.18;0.55;;;16.30;99.90;;;;;;5063652;28;20124;-69
2023/09/21 12:45:32;;;;;;;0.98;0.45;;;16.30;99.90;;;;;;5029884;28;20044;-70
2023/09/21 12:48:02;;;;;;;2.28;0.60;;;16.30;99.90;;;;;;5059790;28;20055;-69
2023/09/21 12:50:28;;;;;;;1.58;0.70;;;16.30;99.90;;;;;;5058001;28;20540;-70
2023/09/21 12:52:54;;;;;;;1.50;0.70;;;16.30;99.90;;;;;;5042162;28;20099;-69
2023/09/21 12:55:21;;;;;;;0.85;0.45;;;16.30;99.90;;;;;;5066519;28;20380;-70
2023/09/21 12:57:47;;;;;;;1.30;0.52;;;16.30;99.90;;;;;;5041668;28;20047;-69
2023/09/21 13:00:15;;;;;;;5.45;0.63;;;16.30;99.90;;;;;;5063506;28;20056;-69